createdAt,value
2018-11-28T00:00:41.821Z,2.65
2018-11-28T00:01:51.892Z,2.76
2018-11-28T00:03:01.962Z,2.77
2018-11-28T00:04:12.029Z,2.67
2018-11-28T00:05:21.847Z,2.7
2018-11-28T00:06:31.914Z,2.63
2018-11-28T00:07:42.042Z,2.7
2018-11-28T00:08:52.202Z,2.6
2018-11-28T00:10:02.351Z,2.62
2018-11-28T00:11:12.443Z,2.67
2018-11-28T00:12:22.252Z,2.62
2018-11-28T00:13:32.330Z,2.66
2018-11-28T00:14:42.444Z,2.67
2018-11-28T00:15:52.506Z,2.65
2018-11-28T00:17:02.665Z,2.65
2018-11-28T00:18:12.764Z,2.62
2018-11-28T00:19:22.832Z,2.62
2018-11-28T00:20:32.914Z,2.67
2018-11-28T00:21:43.003Z,2.72
2018-11-28T00:22:53.077Z,2.6
2018-11-28T00:24:03.162Z,2.58
2018-11-28T00:25:13.208Z,2.72
2018-11-28T00:26:23.008Z,2.72
2018-11-28T00:27:33.061Z,2.77
2018-11-28T00:28:43.127Z,2.72
2018-11-28T00:29:52.950Z,2.7
2018-11-28T00:31:03.774Z,2.7
2018-11-28T00:32:14.582Z,2.73
2018-11-28T00:33:24.458Z,2.72
2018-11-28T00:34:34.516Z,2.6
2018-11-28T00:35:44.577Z,2.62
2018-11-28T00:36:54.647Z,2.62
2018-11-28T00:38:04.953Z,2.63
2018-11-28T00:39:14.962Z,2.54
2018-11-28T00:40:24.767Z,2.55
2018-11-28T00:41:34.821Z,2.48
2018-11-28T00:42:44.875Z,2.54
2018-11-28T00:43:55.002Z,2.51
2018-11-28T00:45:05.069Z,2.47
2018-11-28T00:46:15.126Z,2.47
2018-11-28T00:47:25.187Z,2.48
2018-11-28T00:48:35.230Z,2.47
2018-11-28T00:49:45.392Z,2.4
2018-11-28T00:50:55.456Z,2.34
2018-11-28T00:52:06.571Z,2.36
2018-11-28T00:53:16.634Z,2.42
2018-11-28T00:54:26.715Z,2.36
2018-11-28T00:55:36.568Z,2.38
2018-11-28T00:56:46.612Z,2.45
2018-11-28T00:57:56.478Z,2.38
2018-11-28T00:59:08.644Z,2.41
2018-11-28T01:00:18.788Z,2.41
2018-11-28T01:01:28.861Z,2.4
2018-11-28T01:02:38.975Z,2.33
2018-11-28T01:03:49.040Z,2.3
2018-11-28T01:04:59.093Z,2.36
2018-11-28T01:06:09.172Z,2.34
2018-11-28T01:07:18.986Z,2.34
2018-11-28T01:08:29.053Z,2.33
2018-11-28T01:09:39.120Z,2.36
2018-11-28T01:10:48.942Z,2.42
2018-11-28T01:11:59.013Z,2.34
2018-11-28T01:13:09.084Z,2.31
2018-11-28T01:14:19.161Z,2.41
2018-11-28T01:15:28.985Z,2.3
2018-11-28T01:16:39.067Z,2.38
2018-11-28T01:17:49.135Z,2.38
2018-11-28T01:18:59.212Z,2.44
2018-11-28T01:20:09.297Z,2.38
2018-11-28T01:21:19.655Z,2.44
2018-11-28T01:22:29.471Z,2.4
2018-11-28T01:23:39.514Z,2.42
2018-11-28T01:24:49.312Z,2.51
2018-11-28T01:25:59.375Z,2.45
2018-11-28T01:27:11.740Z,2.48
2018-11-28T01:28:21.538Z,2.47
2018-11-28T01:29:31.602Z,2.42
2018-11-28T01:30:41.450Z,2.36
2018-11-28T01:31:51.242Z,2.4
2018-11-28T01:33:01.407Z,2.42
2018-11-28T01:34:11.668Z,2.45
2018-11-28T01:35:21.749Z,2.48
2018-11-28T01:36:31.904Z,2.41
2018-11-28T01:37:42.001Z,2.44
2018-11-28T01:38:52.043Z,2.38
2018-11-28T01:40:04.515Z,2.41
2018-11-28T01:41:14.591Z,2.4
2018-11-28T01:42:24.435Z,2.48
2018-11-28T01:43:34.478Z,2.47
2018-11-28T01:44:44.258Z,2.41
2018-11-28T01:45:54.323Z,2.45
2018-11-28T01:47:04.110Z,2.42
2018-11-28T01:48:14.203Z,2.47
2018-11-28T01:49:24.260Z,2.41
2018-11-28T01:50:34.324Z,2.42
2018-11-28T01:51:44.364Z,2.41
2018-11-28T01:52:54.445Z,2.41
2018-11-28T01:54:04.511Z,2.42
2018-11-28T01:55:14.577Z,2.42
2018-11-28T01:56:24.685Z,2.4
2018-11-28T01:57:34.714Z,2.41
2018-11-28T01:58:44.781Z,2.41
2018-11-28T01:59:54.583Z,2.42
2018-11-28T02:01:04.631Z,2.42
2018-11-28T02:02:14.555Z,2.45
2018-11-28T02:03:24.620Z,2.49
2018-11-28T02:04:34.426Z,2.52
2018-11-28T02:05:58.911Z,2.52
2018-11-28T02:07:09.333Z,2.48
2018-11-28T02:08:19.152Z,2.51
2018-11-28T02:09:28.962Z,2.48
2018-11-28T02:10:39.059Z,2.59
2018-11-28T02:11:49.185Z,2.59
2018-11-28T02:12:59.493Z,2.58
2018-11-28T02:14:09.564Z,2.55
2018-11-28T02:15:19.439Z,2.59
2018-11-28T02:16:29.509Z,2.6
2018-11-28T02:17:39.570Z,2.58
2018-11-28T02:18:49.641Z,2.63
2018-11-28T02:19:59.443Z,2.63
2018-11-28T02:21:09.256Z,2.6
2018-11-28T02:22:19.313Z,2.6
2018-11-28T02:23:29.369Z,2.65
2018-11-28T02:24:39.422Z,2.58
2018-11-28T02:25:49.486Z,2.62
2018-11-28T02:26:59.565Z,2.65
2018-11-28T02:28:09.859Z,2.55
2018-11-28T02:29:19.927Z,2.65
2018-11-28T02:30:29.785Z,2.73
2018-11-28T02:31:39.853Z,2.72
2018-11-28T02:32:49.958Z,2.63
2018-11-28T02:34:00.388Z,2.72
2018-11-28T02:35:10.448Z,2.62
2018-11-28T02:36:20.503Z,2.72
2018-11-28T02:37:30.579Z,2.66
2018-11-28T02:38:40.393Z,2.69
2018-11-28T02:39:50.464Z,2.7
2018-11-28T02:41:00.545Z,2.6
2018-11-28T02:42:10.653Z,2.7
2018-11-28T02:43:20.704Z,2.8
2018-11-28T02:44:30.770Z,2.7
2018-11-28T02:45:40.867Z,2.59
2018-11-28T02:46:50.698Z,2.66
2018-11-28T02:48:03.588Z,2.7
2018-11-28T02:49:13.655Z,2.78
2018-11-28T02:50:24.165Z,2.62
2018-11-28T02:51:34.249Z,2.63
2018-11-28T02:52:45.183Z,2.76
2018-11-28T02:53:55.245Z,2.73
2018-11-28T02:55:05.903Z,2.72
2018-11-28T02:56:15.979Z,2.73
2018-11-28T02:57:25.787Z,2.63
2018-11-28T02:58:35.593Z,2.7
2018-11-28T02:59:45.658Z,2.65
2018-11-28T03:00:55.736Z,2.58
2018-11-28T03:02:05.814Z,2.63
2018-11-28T03:03:16.130Z,2.6
2018-11-28T03:35:03.821Z,0.82
2018-11-28T03:36:13.937Z,0.76
2018-11-28T03:37:24.050Z,0.76
2018-11-28T03:38:34.181Z,0.78
2018-11-28T03:39:44.062Z,0.86
2018-11-28T03:40:54.332Z,0.92
2018-11-28T03:42:04.472Z,1.03
2018-11-28T03:43:14.848Z,1.12
2018-11-28T03:44:24.969Z,1.2
2018-11-28T03:45:35.372Z,1.35
2018-11-28T03:46:45.980Z,1.44
2018-11-28T03:47:56.098Z,1.6
2018-11-28T03:49:07.444Z,1.64
2018-11-28T03:50:17.590Z,1.65
2018-11-28T03:51:27.721Z,1.83
2018-11-28T03:52:37.913Z,1.79
2018-11-28T03:53:48.084Z,1.87
2018-11-28T03:54:58.447Z,1.98
2018-11-28T03:56:08.580Z,2.01
2018-11-28T03:57:18.457Z,2.02
2018-11-28T03:58:28.255Z,2.09
2018-11-28T03:59:38.501Z,2.24
2018-11-28T04:00:48.646Z,2.16
2018-11-28T04:01:58.514Z,2.24
2018-11-28T04:03:08.387Z,2.31
2018-11-28T04:04:18.577Z,2.27
2018-11-28T04:05:28.726Z,2.34
2018-11-28T04:06:38.853Z,2.38
2018-11-28T04:07:49.006Z,2.41
2018-11-28T04:08:59.159Z,2.38
2018-11-28T04:10:10.796Z,2.34
2018-11-28T04:11:20.932Z,2.49
2018-11-28T04:12:30.803Z,2.44
2018-11-28T04:13:40.921Z,2.45
2018-11-28T04:14:51.064Z,2.45
2018-11-28T04:16:01.254Z,2.49
2018-11-28T04:17:11.617Z,2.51
2018-11-28T04:18:21.850Z,2.51
2018-11-28T04:19:31.664Z,2.45
2018-11-28T04:20:41.540Z,2.47
2018-11-28T04:21:52.734Z,2.47
2018-11-28T04:23:05.057Z,2.47
2018-11-28T04:24:15.185Z,2.49
2018-11-28T04:25:25.336Z,2.54
2018-11-28T04:26:35.462Z,2.51
2018-11-28T04:27:45.337Z,2.48
2018-11-28T04:28:54.949Z,2.52
2018-11-28T04:30:08.297Z,2.49
2018-11-28T04:31:18.423Z,2.49
2018-11-28T04:32:28.566Z,2.52
2018-11-28T04:33:38.833Z,2.51
2018-11-28T04:34:48.976Z,2.48
2018-11-28T04:35:59.111Z,2.49
2018-11-28T04:37:09.260Z,2.49
2018-11-28T04:38:19.682Z,2.4
2018-11-28T04:39:29.939Z,2.47
2018-11-28T04:40:40.098Z,2.49
2018-11-28T04:41:49.655Z,2.48
2018-11-28T04:42:59.776Z,2.55
2018-11-28T04:44:09.918Z,2.48
2018-11-28T04:45:20.092Z,2.48
2018-11-28T04:46:30.225Z,2.49
2018-11-28T04:47:40.424Z,2.49
2018-11-28T04:48:50.672Z,2.51
2018-11-28T04:50:00.951Z,2.47
2018-11-28T04:51:11.115Z,2.49
2018-11-28T04:52:21.233Z,2.58
2018-11-28T04:53:31.368Z,2.49
2018-11-28T04:54:41.503Z,2.52
2018-11-28T04:55:51.619Z,2.45
2018-11-28T04:57:01.799Z,2.45
2018-11-28T04:58:11.940Z,2.49
2018-11-28T04:59:22.052Z,2.47
2018-11-28T05:00:32.119Z,2.52
2018-11-28T05:01:41.987Z,2.49
2018-11-28T05:02:52.170Z,2.51
2018-11-28T05:04:02.323Z,2.45
2018-11-28T05:05:12.462Z,2.47
2018-11-28T05:06:22.335Z,2.47
2018-11-28T05:07:31.969Z,2.45
2018-11-28T05:08:41.864Z,2.45
2018-11-28T05:09:52.475Z,2.45
2018-11-28T05:11:02.698Z,2.51
2018-11-28T05:12:12.567Z,2.48
2018-11-28T05:13:22.791Z,2.51
2018-11-28T05:14:32.738Z,2.49
2018-11-28T05:15:42.615Z,2.49
2018-11-28T05:16:52.718Z,2.48
2018-11-28T05:18:02.862Z,2.44
2018-11-28T05:19:12.726Z,2.45
2018-11-28T05:20:22.862Z,2.42
2018-11-28T05:21:32.990Z,2.44
2018-11-28T05:22:43.110Z,2.49
2018-11-28T05:23:53.265Z,2.41
2018-11-28T05:25:03.746Z,2.44
2018-11-28T05:26:13.869Z,2.45
2018-11-28T05:27:23.748Z,2.41
2018-11-28T05:28:33.874Z,2.41
2018-11-28T05:29:44.035Z,2.34
2018-11-28T05:30:54.162Z,2.3
2018-11-28T05:32:04.339Z,2.38
2018-11-28T05:33:14.470Z,2.33
2018-11-28T05:34:24.590Z,2.29
2018-11-28T05:35:34.732Z,2.31
2018-11-28T05:36:44.892Z,2.31
2018-11-28T05:37:55.075Z,2.38
2018-11-28T05:39:05.602Z,2.26
2018-11-28T05:40:15.752Z,2.34
2018-11-28T05:41:25.675Z,2.29
2018-11-28T05:42:35.524Z,2.31
2018-11-28T05:43:45.633Z,2.33
2018-11-28T05:44:55.778Z,2.27
2018-11-28T05:46:05.935Z,2.33
2018-11-28T05:47:16.057Z,2.33
2018-11-28T05:48:26.183Z,2.26
2018-11-28T05:49:36.381Z,2.3
2018-11-28T05:50:46.517Z,2.3
2018-11-28T05:51:56.393Z,2.29
2018-11-28T05:53:06.510Z,2.31
2018-11-28T05:54:16.630Z,2.31
2018-11-28T05:55:28.130Z,2.3
2018-11-28T05:56:38.243Z,2.31
2018-11-28T05:57:48.876Z,2.34
2018-11-28T05:58:59.001Z,2.33
2018-11-28T06:00:09.757Z,2.27
2018-11-28T06:01:19.638Z,2.38
2018-11-28T06:02:29.756Z,2.4
2018-11-28T06:03:39.990Z,2.33
2018-11-28T06:04:49.858Z,2.31
2018-11-28T06:06:03.010Z,2.33
2018-11-28T06:07:12.880Z,2.31
2018-11-28T06:08:23.246Z,2.34
2018-11-28T06:09:33.419Z,2.3
2018-11-28T06:10:43.564Z,2.34
2018-11-28T06:11:53.717Z,2.34
2018-11-28T06:13:03.860Z,2.33
2018-11-28T06:14:13.999Z,2.36
2018-11-28T06:15:23.957Z,2.4
2018-11-28T06:16:34.065Z,2.45
2018-11-28T06:17:44.185Z,2.34
2018-11-28T06:18:54.385Z,2.45
2018-11-28T06:20:04.540Z,2.41
2018-11-28T06:21:14.911Z,2.38
2018-11-28T06:22:24.283Z,2.41
2018-11-28T06:23:34.158Z,2.41
2018-11-28T06:24:44.515Z,2.42
2018-11-28T06:25:54.644Z,2.33
2018-11-28T06:27:04.771Z,2.41
2018-11-28T06:28:14.559Z,2.42
2018-11-28T06:29:24.392Z,2.42
2018-11-28T06:30:34.263Z,2.41
2018-11-28T06:31:44.398Z,2.44
2018-11-28T06:32:55.693Z,2.4
2018-11-28T06:34:05.863Z,2.45
2018-11-28T06:35:15.731Z,2.44
2018-11-28T06:36:25.848Z,2.44
2018-11-28T06:37:35.968Z,2.44
2018-11-28T06:38:46.120Z,2.42
2018-11-28T06:39:56.258Z,2.49
2018-11-28T06:41:07.215Z,2.49
2018-11-28T06:42:17.355Z,2.48
2018-11-28T06:43:27.536Z,2.44
2018-11-28T06:44:37.426Z,2.51
2018-11-28T06:45:47.292Z,2.52
2018-11-28T06:46:57.404Z,2.49
2018-11-28T06:48:07.323Z,2.51
2018-11-28T06:49:17.548Z,2.55
2018-11-28T06:50:27.403Z,2.58
2018-11-28T06:51:37.525Z,2.63
2018-11-28T06:52:47.639Z,2.63
2018-11-28T06:53:57.786Z,2.62
2018-11-28T06:55:08.120Z,2.73
2018-11-28T06:56:18.270Z,2.67
2018-11-28T06:57:28.395Z,2.78
2018-11-28T06:58:38.527Z,2.76
2018-11-28T06:59:48.735Z,2.72
2018-11-28T07:00:58.596Z,2.88
2018-11-28T07:02:08.725Z,2.88
2018-11-28T07:03:18.860Z,2.91
2018-11-28T07:04:28.729Z,3.05
2018-11-28T07:05:38.905Z,3.06
2018-11-28T07:06:48.757Z,3.11
2018-11-28T07:07:58.921Z,3.19
2018-11-28T07:09:09.063Z,3.23
2018-11-28T07:10:19.429Z,3.24
2018-11-28T07:11:29.296Z,3.39
2018-11-28T07:12:39.450Z,3.3
2018-11-28T07:13:49.242Z,3.49
2018-11-28T07:14:59.360Z,3.45
2018-11-28T07:16:10.747Z,3.54
2018-11-28T07:17:20.889Z,3.53
2018-11-28T07:18:31.042Z,3.56
2018-11-28T07:19:40.913Z,3.53
2018-11-28T07:20:51.316Z,3.64
2018-11-28T07:22:01.477Z,3.67
2018-11-28T07:23:11.608Z,3.72
2018-11-28T07:24:21.745Z,3.81
2018-11-28T07:25:31.933Z,3.82
2018-11-28T07:26:42.056Z,3.78
2018-11-28T07:27:51.914Z,3.85
2018-11-28T07:29:03.131Z,3.86
2018-11-28T07:30:13.252Z,3.81
2018-11-28T07:31:23.405Z,3.81
2018-11-28T07:32:33.592Z,3.9
2018-11-28T07:33:43.439Z,3.93
2018-11-28T07:34:53.572Z,3.96
2018-11-28T07:36:03.167Z,3.92
2018-11-28T07:37:13.034Z,4.04
2018-11-28T07:38:23.160Z,4.03
2018-11-28T07:39:32.994Z,3.97
2018-11-28T07:40:42.915Z,4.08
2018-11-28T07:41:52.763Z,4.07
2018-11-28T07:43:02.944Z,4.12
2018-11-28T07:44:13.134Z,4.2
2018-11-28T07:45:22.725Z,4.26
2018-11-28T07:46:32.863Z,4.29
2018-11-28T07:47:42.978Z,4.18
2018-11-28T07:48:52.852Z,4.11
2018-11-28T07:50:05.430Z,4.24
2018-11-28T07:51:15.625Z,4.33
2018-11-28T07:52:25.750Z,4.39
2018-11-28T07:53:35.651Z,4.47
2018-11-28T07:54:45.980Z,4.44
2018-11-28T07:55:56.122Z,4.5
2018-11-28T07:57:05.957Z,4.54
2018-11-28T07:58:15.818Z,4.56
2018-11-28T07:59:25.689Z,4.61
2018-11-28T08:00:35.804Z,4.68
2018-11-28T08:01:45.923Z,4.75
2018-11-28T08:02:56.070Z,4.72
2018-11-28T08:04:06.197Z,4.64
2018-11-28T08:05:16.011Z,4.74
2018-11-28T08:06:26.156Z,4.72
2018-11-28T08:07:36.641Z,4.66
2018-11-28T08:08:46.478Z,4.68
2018-11-28T08:09:56.608Z,4.69
2018-11-28T08:11:08.633Z,4.74
2018-11-28T08:12:18.765Z,4.71
2018-11-28T08:13:28.899Z,4.74
2018-11-28T08:14:39.018Z,4.72
2018-11-28T08:15:49.197Z,4.68
2018-11-28T08:16:59.387Z,4.74
2018-11-28T08:18:10.854Z,4.71
2018-11-28T08:19:26.386Z,4.69
2018-11-28T08:20:36.298Z,4.74
2018-11-28T08:21:46.420Z,4.69
2018-11-28T08:22:56.598Z,4.75
2018-11-28T08:24:07.682Z,4.75
2018-11-28T08:25:17.872Z,4.9
2018-11-28T08:26:33.347Z,4.84
2018-11-28T08:27:43.814Z,4.87
2018-11-28T08:28:54.252Z,5
2018-11-28T08:30:04.085Z,5.13
2018-11-28T08:31:14.768Z,5.27
2018-11-28T08:32:24.644Z,5.36
2018-11-28T08:33:34.772Z,5.42
2018-11-28T08:34:44.921Z,5.55
2018-11-28T08:35:55.059Z,5.66
2018-11-28T08:37:05.329Z,5.64
2018-11-28T08:38:15.497Z,5.6
2018-11-28T08:39:25.634Z,5.54
2018-11-28T08:40:35.459Z,5.46
2018-11-28T08:41:45.599Z,5.42
2018-11-28T08:42:55.851Z,5.39
2018-11-28T08:44:06.259Z,5.31
2018-11-28T08:45:16.679Z,5.33
2018-11-28T08:46:27.109Z,5.27
2018-11-28T08:47:37.488Z,5.18
2018-11-28T08:48:47.279Z,5.24
2018-11-28T08:49:57.415Z,5.24
2018-11-28T08:51:09.158Z,5.49
2018-11-28T08:52:19.083Z,5.37
2018-11-28T08:53:29.318Z,5.45
2018-11-28T08:54:39.425Z,5.46
2018-11-28T08:55:49.550Z,5.54
2018-11-28T08:56:59.665Z,5.78
2018-11-28T08:58:11.075Z,6.51
2018-11-28T08:59:21.270Z,6.94
2018-11-28T09:00:30.955Z,7.01
2018-11-28T09:01:41.100Z,7.13
2018-11-28T09:02:51.242Z,7.19
2018-11-28T09:04:01.154Z,7.67
2018-11-28T09:05:11.365Z,7.91
2018-11-28T09:06:21.480Z,8.17
2018-11-28T09:07:31.631Z,8.4
2018-11-28T09:08:41.485Z,8.53
2018-11-28T09:09:52.299Z,8.95
2018-11-28T09:11:01.908Z,9.17
2018-11-28T09:12:12.036Z,9.44
2018-11-28T09:13:22.242Z,9.7
2018-11-28T09:14:32.703Z,9.71
2018-11-28T09:15:42.942Z,9.59
2018-11-28T09:16:53.083Z,9.27
2018-11-28T09:18:03.891Z,8.92
2018-11-28T09:19:14.019Z,8.72
2018-11-28T09:20:24.144Z,9.2
2018-11-28T09:21:34.273Z,9.44
2018-11-28T09:22:44.408Z,9.11
2018-11-28T09:23:54.598Z,8.57
2018-11-28T09:25:05.226Z,8.09
2018-11-28T09:26:15.371Z,7.78
2018-11-28T09:27:25.495Z,7.45
2018-11-28T09:28:35.628Z,7.19
2018-11-28T09:29:45.993Z,7.03
2018-11-28T09:30:56.105Z,7
2018-11-28T09:32:07.723Z,6.9
2018-11-28T09:33:18.100Z,6.83
2018-11-28T09:34:28.288Z,6.64
2018-11-28T09:35:38.408Z,6.73
2018-11-28T09:36:48.521Z,6.61
2018-11-28T09:37:58.635Z,6.68
2018-11-28T09:39:08.497Z,6.58
2018-11-28T09:40:18.366Z,6.65
2018-11-28T09:41:28.545Z,6.7
2018-11-28T09:42:38.687Z,6.67
2018-11-28T09:43:48.802Z,6.67
2018-11-28T09:44:59.249Z,6.72
2018-11-28T09:46:09.384Z,6.73
2018-11-28T09:47:19.757Z,6.75
2018-11-28T09:48:29.617Z,6.8
2018-11-28T09:49:39.769Z,6.7
2018-11-28T09:50:49.898Z,6.8
2018-11-28T09:52:00.023Z,6.8
2018-11-28T09:53:09.892Z,6.83
2018-11-28T09:54:20.014Z,6.95
2018-11-28T09:55:30.190Z,6.93
2018-11-28T09:56:40.380Z,6.97
2018-11-28T09:57:50.522Z,7
2018-11-28T09:59:00.429Z,7.08
2018-11-28T10:00:10.596Z,7.12
2018-11-28T10:01:20.780Z,7.15
2018-11-28T10:02:30.406Z,7.08
2018-11-28T10:03:40.591Z,7.12
2018-11-28T10:04:50.466Z,7.15
2018-11-28T10:06:00.605Z,7.09
2018-11-28T10:07:11.061Z,7.18
2018-11-28T10:08:20.938Z,7.21
2018-11-28T10:09:30.923Z,7.16
2018-11-28T10:10:41.309Z,7.27
2018-11-28T10:11:51.179Z,7.29
2018-11-28T10:13:01.359Z,7.33
2018-11-28T10:14:11.488Z,7.33
2018-11-28T10:15:21.343Z,7.33
2018-11-28T10:16:31.467Z,7.41
2018-11-28T10:17:41.443Z,7.37
2018-11-28T10:18:51.854Z,7.39
2018-11-28T10:20:01.999Z,7.39
2018-11-28T10:21:12.356Z,7.48
2018-11-28T10:22:22.498Z,7.51
2018-11-28T10:23:32.621Z,7.63
2018-11-28T10:24:42.751Z,7.63
2018-11-28T10:25:52.972Z,7.73
2018-11-28T10:27:03.098Z,7.73
2018-11-28T10:28:13.225Z,7.82
2018-11-28T10:29:23.588Z,7.75
2018-11-28T10:30:33.982Z,7.8
2018-11-28T10:31:44.167Z,7.78
2018-11-28T10:32:54.313Z,7.85
2018-11-28T10:34:04.457Z,7.8
2018-11-28T10:35:14.344Z,7.93
2018-11-28T10:36:24.225Z,8.09
2018-11-28T10:37:33.838Z,7.92
2018-11-28T10:38:43.966Z,8.09
2018-11-28T10:39:54.158Z,8.06
2018-11-28T10:41:04.287Z,7.98
2018-11-28T10:42:14.670Z,8.14
2018-11-28T10:43:24.792Z,8.1
2018-11-28T10:44:34.947Z,8.13
2018-11-28T10:45:45.171Z,8.21
2018-11-28T10:46:55.028Z,8.14
2018-11-28T10:48:08.173Z,8.19
2018-11-28T10:49:18.550Z,8.26
2018-11-28T10:50:28.672Z,8.43
2018-11-28T10:51:38.794Z,8.42
2018-11-28T10:52:48.939Z,8.47
2018-11-28T10:53:59.106Z,8.54
2018-11-28T10:55:09.264Z,8.58
2018-11-28T10:56:19.427Z,8.62
2018-11-28T10:57:29.348Z,8.6
2018-11-28T10:58:39.483Z,8.58
2018-11-28T10:59:49.343Z,8.71
2018-11-28T11:00:59.467Z,8.8
2018-11-28T11:02:09.341Z,8.79
2018-11-28T11:03:19.646Z,8.86
2018-11-28T11:04:29.864Z,8.76
2018-11-28T11:05:40.227Z,8.76
2018-11-28T11:06:50.415Z,8.9
2018-11-28T11:08:00.342Z,8.87
2018-11-28T11:09:10.522Z,8.87
2018-11-28T11:10:20.669Z,8.92
2018-11-28T11:11:30.795Z,8.9
2018-11-28T11:12:40.666Z,8.89
2018-11-28T11:13:50.794Z,8.89
2018-11-28T11:15:00.758Z,8.92
2018-11-28T11:16:10.619Z,9
2018-11-28T11:17:20.801Z,9.01
2018-11-28T11:18:30.614Z,9.01
2018-11-28T11:19:40.768Z,9.09
2018-11-28T11:20:50.922Z,9.14
2018-11-28T11:22:00.863Z,9.11
2018-11-28T11:23:11.003Z,9.12
2018-11-28T11:24:20.928Z,9.12
2018-11-28T11:25:31.073Z,9.09
2018-11-28T11:26:41.279Z,9.08
2018-11-28T11:27:51.426Z,9.14
2018-11-28T11:29:02.921Z,9.17
2018-11-28T11:30:13.055Z,9.16
2018-11-28T11:31:23.201Z,9.2
2018-11-28T11:32:33.676Z,9.23
2018-11-28T11:33:43.819Z,9.21
2018-11-28T11:34:54.198Z,9.26
2018-11-28T11:36:04.324Z,9.2
2018-11-28T11:37:14.480Z,9.27
2018-11-28T11:38:24.772Z,9.23
2018-11-28T11:39:34.648Z,9.2
2018-11-28T11:40:44.517Z,9.19
2018-11-28T11:41:54.659Z,9.23
2018-11-28T11:43:04.887Z,9.23
2018-11-28T11:44:15.062Z,9.26
2018-11-28T11:45:25.288Z,9.29
2018-11-28T11:46:35.695Z,9.26
2018-11-28T11:47:45.829Z,9.27
2018-11-28T11:48:55.956Z,9.27
2018-11-28T11:50:08.570Z,9.29
2018-11-28T11:51:19.788Z,9.3
2018-11-28T11:52:30.055Z,9.27
2018-11-28T11:53:40.212Z,9.26
2018-11-28T11:54:50.366Z,9.35
2018-11-28T11:56:00.515Z,9.3
2018-11-28T11:57:10.686Z,9.24
2018-11-28T11:58:20.812Z,9.24
2018-11-28T11:59:31.008Z,9.2
2018-11-28T12:00:41.151Z,9.29
2018-11-28T12:01:57.083Z,9.21
2018-11-28T12:03:07.005Z,9.24
2018-11-28T12:04:16.881Z,9.23
2018-11-28T12:05:26.718Z,9.19
2018-11-28T12:06:36.583Z,9.24
2018-11-28T12:07:46.709Z,9.59
2018-11-28T12:08:56.534Z,10.49
2018-11-28T12:10:13.408Z,11.52
2018-11-28T12:11:23.542Z,12.43
2018-11-28T12:12:33.677Z,13.17
2018-11-28T12:13:43.545Z,13.94
2018-11-28T12:14:53.458Z,14.59
2018-11-28T12:16:04.961Z,14.48
2018-11-28T12:17:15.120Z,13.68
2018-11-28T12:18:25.054Z,12.69
2018-11-28T12:19:35.196Z,11.91
2018-11-28T12:20:45.094Z,11.34
2018-11-28T12:21:55.081Z,11.03
2018-11-28T12:23:06.316Z,11.18
2018-11-28T12:24:16.464Z,11.81
2018-11-28T12:25:26.613Z,12.61
2018-11-28T12:26:36.748Z,13.17
2018-11-28T12:27:46.916Z,13.54
2018-11-28T12:28:57.111Z,13.78
2018-11-28T12:30:07.266Z,14.05
2018-11-28T12:31:17.398Z,14.16
2018-11-28T12:32:27.582Z,13.73
2018-11-28T12:33:37.966Z,13.02
2018-11-28T12:34:52.968Z,12.13
2018-11-28T12:36:03.107Z,11.57
2018-11-28T12:37:13.229Z,11.41
2018-11-28T12:38:23.307Z,12.18
2018-11-28T12:39:33.170Z,13.1
2018-11-28T12:40:43.456Z,13.76
2018-11-28T12:41:53.333Z,14.39
2018-11-28T12:43:03.722Z,14.89
2018-11-28T12:44:13.865Z,15.07
2018-11-28T12:45:24.021Z,14.42
2018-11-28T12:46:34.148Z,13.53
2018-11-28T12:47:44.418Z,12.59
2018-11-28T12:48:54.547Z,11.91
2018-11-28T12:50:04.680Z,11.41
2018-11-28T12:51:14.809Z,11.09
2018-11-28T12:52:24.986Z,10.8
2018-11-28T12:53:35.102Z,10.39
2018-11-28T12:54:44.986Z,10.23
2018-11-28T12:55:55.126Z,9.84
2018-11-28T12:57:05.260Z,9.88
2018-11-28T12:58:15.454Z,9.74
2018-11-28T12:59:25.684Z,9.78
2018-11-28T13:00:35.806Z,9.72
2018-11-28T13:01:45.700Z,9.67
2018-11-28T13:02:55.833Z,9.66
2018-11-28T13:04:05.689Z,9.62
2018-11-28T13:05:15.549Z,9.6
2018-11-28T13:06:25.431Z,9.64
2018-11-28T13:07:35.572Z,9.66
2018-11-28T13:08:45.405Z,9.5
2018-11-28T13:09:55.622Z,9.55
2018-11-28T13:11:08.347Z,9.45
2018-11-28T13:12:18.462Z,9.37
2018-11-28T13:13:28.583Z,9.34
2018-11-28T13:14:38.721Z,9.14
2018-11-28T13:15:48.845Z,9.01
2018-11-28T13:16:58.711Z,8.9
2018-11-28T13:18:09.580Z,8.89
2018-11-28T13:19:19.460Z,8.98
2018-11-28T13:20:29.583Z,8.8
2018-11-28T13:21:39.712Z,8.74
2018-11-28T13:22:49.862Z,8.95
2018-11-28T13:24:00.023Z,9
2018-11-28T13:25:10.105Z,8.98
2018-11-28T13:26:19.720Z,8.77
2018-11-28T13:27:29.815Z,8.74
2018-11-28T13:28:39.969Z,8.74
2018-11-28T13:29:50.103Z,8.58
2018-11-28T13:31:03.734Z,8.67
2018-11-28T13:32:13.910Z,8.57
2018-11-28T13:33:23.780Z,8.4
2018-11-28T13:34:33.644Z,8.49
2018-11-28T13:35:43.778Z,8.34
2018-11-28T13:36:53.905Z,8.17
2018-11-28T13:38:04.042Z,8.11
2018-11-28T13:39:14.288Z,8.04
2018-11-28T13:40:24.420Z,7.93
2018-11-28T13:41:34.551Z,8.04
2018-11-28T13:42:44.430Z,8.03
2018-11-28T13:43:54.577Z,8.13
2018-11-28T13:45:04.739Z,8.1
2018-11-28T13:46:14.754Z,8.24
2018-11-28T13:47:24.961Z,8.24
2018-11-28T13:48:35.077Z,8.21
2018-11-28T13:49:45.031Z,8.39
2018-11-28T13:50:55.170Z,8.47
2018-11-28T13:52:05.039Z,8.42
2018-11-28T13:53:15.172Z,8.42
2018-11-28T13:54:25.232Z,8.4
2018-11-28T13:55:44.598Z,8.35
2018-11-28T13:58:09.043Z,8.17
2018-11-28T13:59:19.230Z,8.32
2018-11-28T14:00:29.372Z,8.28
2018-11-28T14:01:38.686Z,8.16
2018-11-28T14:02:48.805Z,8.17
2018-11-28T14:03:58.928Z,8.16
2018-11-28T14:05:09.144Z,8.07
2018-11-28T14:06:19.288Z,8.1
2018-11-28T14:07:29.169Z,7.98
2018-11-28T14:08:39.321Z,7.92
2018-11-28T14:09:49.172Z,7.95
2018-11-28T14:10:59.291Z,7.88
2018-11-28T14:12:10.909Z,7.86
2018-11-28T14:13:21.020Z,7.88
2018-11-28T14:14:31.208Z,7.86
2018-11-28T14:15:41.071Z,7.85
2018-11-28T14:16:50.925Z,7.82
2018-11-28T14:18:01.078Z,7.74
2018-11-28T14:19:11.235Z,7.68
2018-11-28T14:20:22.210Z,7.55
2018-11-28T14:21:32.331Z,7.48
2018-11-28T14:22:42.441Z,7.31
2018-11-28T14:23:52.561Z,7.19
2018-11-28T14:25:02.801Z,7.18
2018-11-28T14:26:12.929Z,7.12
2018-11-28T14:27:23.052Z,7.04
2018-11-28T14:28:33.078Z,6.98
2018-11-28T14:29:43.210Z,6.97
2018-11-28T14:30:53.100Z,7.01
2018-11-28T14:32:05.558Z,6.9
2018-11-28T14:33:15.700Z,6.8
2018-11-28T14:34:25.631Z,6.85
2018-11-28T14:35:35.460Z,6.72
2018-11-28T14:36:45.605Z,6.72
2018-11-28T14:37:55.795Z,6.68
2018-11-28T14:39:08.138Z,6.57
2018-11-28T14:40:18.333Z,6.46
2018-11-28T14:41:28.533Z,6.44
2018-11-28T14:42:38.721Z,6.46
2018-11-28T14:43:48.602Z,6.47
2018-11-28T14:44:58.489Z,6.34
2018-11-28T14:46:08.355Z,6.28
2018-11-28T14:47:18.458Z,6.34
2018-11-28T14:48:28.592Z,6.15
2018-11-28T14:49:38.740Z,6.13
2018-11-28T14:50:48.903Z,6.09
2018-11-28T14:51:58.666Z,6
2018-11-28T14:53:08.796Z,6
2018-11-28T14:54:18.589Z,5.89
2018-11-28T14:55:28.795Z,5.98
2018-11-28T14:56:38.924Z,5.87
2018-11-28T14:57:49.048Z,5.88
2018-11-28T14:58:59.168Z,5.87
2018-11-28T15:00:09.292Z,5.88
2018-11-28T15:01:19.421Z,5.75
2018-11-28T15:02:29.559Z,5.75
2018-11-28T15:03:39.443Z,5.64
2018-11-28T15:04:49.571Z,5.64
2018-11-28T15:05:59.709Z,5.64
2018-11-28T15:07:09.645Z,5.54
2018-11-28T15:08:19.820Z,5.6
2018-11-28T15:09:29.747Z,5.6
2018-11-28T15:10:39.697Z,5.55
2018-11-28T15:11:49.682Z,5.55
2018-11-28T15:12:59.553Z,5.42
2018-11-28T15:14:09.691Z,5.44
2018-11-28T15:15:19.825Z,5.52
2018-11-28T15:16:29.720Z,5.34
2018-11-28T15:17:39.860Z,5.42
2018-11-28T15:18:49.755Z,5.3
2018-11-28T15:19:59.879Z,5.3
2018-11-28T15:21:10.064Z,5.28
2018-11-28T15:22:19.660Z,5.26
2018-11-28T15:23:29.803Z,5.28
2018-11-28T15:24:39.677Z,5.1
2018-11-28T15:25:49.800Z,5.12
2018-11-28T15:27:00.016Z,5.21
2018-11-28T15:28:09.901Z,5.16
2018-11-28T15:29:20.053Z,5.09
2018-11-28T15:30:30.184Z,5.15
2018-11-28T15:31:40.326Z,5.09
2018-11-28T15:32:50.438Z,5.1
2018-11-28T15:34:00.557Z,5.03
2018-11-28T15:35:10.717Z,5
2018-11-28T15:36:20.594Z,5
2018-11-28T15:37:30.719Z,4.94
2018-11-28T15:38:40.636Z,4.97
2018-11-28T15:39:55.643Z,4.97
2018-11-28T15:41:06.124Z,4.84
2018-11-28T15:42:16.268Z,4.9
2018-11-28T15:43:26.403Z,4.85
2018-11-28T15:44:36.584Z,4.78
2018-11-28T15:45:46.858Z,4.79
2018-11-28T15:46:56.987Z,4.75
2018-11-28T15:48:06.871Z,4.75
2018-11-28T15:49:17.018Z,4.72
2018-11-28T15:50:27.147Z,4.69
2018-11-28T15:51:37.267Z,4.72
2018-11-28T15:52:47.394Z,4.61
2018-11-28T15:53:57.532Z,4.68
2018-11-28T15:55:07.648Z,4.6
2018-11-28T15:56:17.822Z,4.64
2018-11-28T15:57:27.961Z,4.53
2018-11-28T15:58:38.091Z,4.5
2018-11-28T15:59:48.235Z,4.5
2018-11-28T16:00:58.381Z,4.5
2018-11-28T16:02:08.596Z,4.48
2018-11-28T16:03:18.737Z,4.53
2018-11-28T16:04:28.866Z,4.35
2018-11-28T16:05:39.036Z,4.38
2018-11-28T16:06:49.178Z,4.3
2018-11-28T16:07:59.358Z,4.39
2018-11-28T16:09:09.485Z,4.33
2018-11-28T16:10:19.609Z,4.29